sensor_id;sensor_type;location;lat;lon;timestamp;pressure;altitude;pressure_sealevel;temperature;humidity
6347;BME280;3206;42.666;23.600;2022-07-21T00:01:16;95486.69;;;16.54;100.00
6347;BME280;3206;42.666;23.600;2022-07-21T00:03:43;95486.81;;;16.61;100.00
6347;BME280;3206;42.666;23.600;2022-07-21T00:06:10;95487.63;;;16.65;100.00
6347;BME280;3206;42.666;23.600;2022-07-21T00:08:36;95491.13;;;16.69;100.00
6347;BME280;3206;42.666;23.600;2022-07-21T00:11:05;95485.31;;;16.67;100.00
6347;BME280;3206;42.666;23.600;2022-07-21T00:13:31;95484.50;;;16.63;100.00
6347;BME280;3206;42.666;23.600;2022-07-21T00:15:58;95485.22;;;16.57;100.00
6347;BME280;3206;42.666;23.600;2022-07-21T00:18:25;95483.53;;;16.45;100.00
6347;BME280;3206;42.666;23.600;2022-07-21T00:20:53;95482.78;;;16.48;100.00
6347;BME280;3206;42.666;23.600;2022-07-21T00:23:21;95476.19;;;16.46;100.00
6347;BME280;3206;42.666;23.600;2022-07-21T00:25:48;95478.19;;;16.49;100.00
6347;BME280;3206;42.666;23.600;2022-07-21T00:28:16;95481.19;;;16.44;100.00
6347;BME280;3206;42.666;23.600;2022-07-21T00:30:43;95476.47;;;16.37;100.00
6347;BME280;3206;42.666;23.600;2022-07-21T00:33:10;95485.66;;;16.33;100.00
6347;BME280;3206;42.666;23.600;2022-07-21T00:35:37;95486.41;;;16.33;100.00
6347;BME280;3206;42.666;23.600;2022-07-21T00:38:04;95489.81;;;16.27;100.00
6347;BME280;3206;42.666;23.600;2022-07-21T00:40:31;95487.91;;;16.27;100.00
6347;BME280;3206;42.666;23.600;2022-07-21T00:42:58;95487.06;;;16.23;100.00
6347;BME280;3206;42.666;23.600;2022-07-21T00:45:26;95481.69;;;16.23;100.00
6347;BME280;3206;42.666;23.600;2022-07-21T00:47:53;95483.59;;;16.23;100.00
6347;BME280;3206;42.666;23.600;2022-07-21T00:50:20;95477.53;;;16.00;100.00
6347;BME280;3206;42.666;23.600;2022-07-21T00:52:47;95475.78;;;15.88;100.00
6347;BME280;3206;42.666;23.600;2022-07-21T00:55:16;95482.03;;;15.92;100.00
6347;BME280;3206;42.666;23.600;2022-07-21T00:57:43;95481.38;;;16.02;100.00
6347;BME280;3206;42.666;23.600;2022-07-21T01:00:13;95476.50;;;16.11;100.00
6347;BME280;3206;42.666;23.600;2022-07-21T01:02:42;95495.00;;;16.13;100.00
6347;BME280;3206;42.666;23.600;2022-07-21T01:05:10;95490.88;;;16.19;100.00
6347;BME280;3206;42.666;23.600;2022-07-21T01:07:40;95491.00;;;16.00;100.00
6347;BME280;3206;42.666;23.600;2022-07-21T01:10:08;95493.00;;;16.06;100.00
6347;BME280;3206;42.666;23.600;2022-07-21T01:12:35;95466.69;;;15.96;100.00
6347;BME280;3206;42.666;23.600;2022-07-21T01:15:03;95490.00;;;16.11;100.00
6347;BME280;3206;42.666;23.600;2022-07-21T01:17:30;95488.25;;;15.96;100.00
6347;BME280;3206;42.666;23.600;2022-07-21T01:19:59;95482.91;;;16.00;100.00
6347;BME280;3206;42.666;23.600;2022-07-21T01:22:31;95462.31;;;15.88;100.00
6347;BME280;3206;42.666;23.600;2022-07-21T01:24:57;95480.66;;;16.05;100.00
6347;BME280;3206;42.666;23.600;2022-07-21T01:27:25;95475.97;;;15.99;100.00
6347;BME280;3206;42.666;23.600;2022-07-21T01:29:52;95473.63;;;15.97;100.00
6347;BME280;3206;42.666;23.600;2022-07-21T01:32:19;95471.59;;;15.91;100.00
6347;BME280;3206;42.666;23.600;2022-07-21T01:34:46;95476.13;;;15.83;100.00
6347;BME280;3206;42.666;23.600;2022-07-21T01:37:13;95463.78;;;15.56;100.00
6347;BME280;3206;42.666;23.600;2022-07-21T01:39:41;95468.47;;;15.59;100.00
6347;BME280;3206;42.666;23.600;2022-07-21T01:42:25;95472.53;;;15.50;100.00
6347;BME280;3206;42.666;23.600;2022-07-21T01:44:52;95482.59;;;15.53;100.00
6347;BME280;3206;42.666;23.600;2022-07-21T01:47:18;95481.28;;;15.43;100.00
6347;BME280;3206;42.666;23.600;2022-07-21T01:49:47;95475.91;;;15.43;100.00
6347;BME280;3206;42.666;23.600;2022-07-21T01:52:13;95477.44;;;15.44;100.00
6347;BME280;3206;42.666;23.600;2022-07-21T01:54:42;95470.81;;;15.38;100.00
6347;BME280;3206;42.666;23.600;2022-07-21T01:57:08;95472.72;;;15.38;100.00
6347;BME280;3206;42.666;23.600;2022-07-21T01:59:35;95467.16;;;15.27;100.00
6347;BME280;3206;42.666;23.600;2022-07-21T02:02:02;95476.59;;;15.18;100.00
6347;BME280;3206;42.666;23.600;2022-07-21T02:04:29;95469.94;;;14.90;100.00
6347;BME280;3206;42.666;23.600;2022-07-21T02:06:55;95460.69;;;15.09;100.00
6347;BME280;3206;42.666;23.600;2022-07-21T02:09:22;95460.81;;;15.16;100.00
6347;BME280;3206;42.666;23.600;2022-07-21T02:11:50;95455.53;;;15.23;100.00
6347;BME280;3206;42.666;23.600;2022-07-21T02:14:17;95452.84;;;15.23;100.00
6347;BME280;3206;42.666;23.600;2022-07-21T02:16:44;95448.31;;;15.27;100.00
6347;BME280;3206;42.666;23.600;2022-07-21T02:19:10;95450.59;;;15.25;100.00
6347;BME280;3206;42.666;23.600;2022-07-21T02:21:37;95451.75;;;15.28;100.00
6347;BME280;3206;42.666;23.600;2022-07-21T02:24:05;95445.16;;;15.22;100.00
6347;BME280;3206;42.666;23.600;2022-07-21T02:26:32;95456.56;;;15.15;100.00
6347;BME280;3206;42.666;23.600;2022-07-21T02:29:00;95448.25;;;15.24;100.00
6347;BME280;3206;42.666;23.600;2022-07-21T02:31:27;95447.84;;;15.22;100.00
6347;BME280;3206;42.666;23.600;2022-07-21T02:33:54;95454.91;;;15.30;100.00
6347;BME280;3206;42.666;23.600;2022-07-21T02:36:20;95438.56;;;15.19;100.00
6347;BME280;3206;42.666;23.600;2022-07-21T02:38:47;95454.25;;;15.36;100.00
6347;BME280;3206;42.666;23.600;2022-07-21T02:41:15;95446.81;;;15.30;100.00
6347;BME280;3206;42.666;23.600;2022-07-21T02:43:42;95451.75;;;15.28;100.00
6347;BME280;3206;42.666;23.600;2022-07-21T02:46:10;95455.41;;;15.16;100.00
6347;BME280;3206;42.666;23.600;2022-07-21T02:48:37;95459.25;;;15.15;100.00
6347;BME280;3206;42.666;23.600;2022-07-21T02:51:04;95455.66;;;15.08;100.00
6347;BME280;3206;42.666;23.600;2022-07-21T02:53:30;95458.41;;;15.11;100.00
6347;BME280;3206;42.666;23.600;2022-07-21T02:55:57;95456.88;;;15.10;100.00
6347;BME280;3206;42.666;23.600;2022-07-21T02:58:25;95449.06;;;15.05;100.00
6347;BME280;3206;42.666;23.600;2022-07-21T03:00:53;95459.84;;;15.05;100.00
6347;BME280;3206;42.666;23.600;2022-07-21T03:03:22;95451.81;;;14.87;100.00
6347;BME280;3206;42.666;23.600;2022-07-21T03:05:50;95458.75;;;14.88;100.00
6347;BME280;3206;42.666;23.600;2022-07-21T03:08:17;95456.44;;;14.86;100.00
6347;BME280;3206;42.666;23.600;2022-07-21T03:10:44;95461.84;;;14.67;100.00
6347;BME280;3206;42.666;23.600;2022-07-21T03:13:12;95463.34;;;14.65;100.00
6347;BME280;3206;42.666;23.600;2022-07-21T03:15:39;95463.22;;;14.80;100.00
6347;BME280;3206;42.666;23.600;2022-07-21T03:18:05;95459.78;;;14.80;100.00
6347;BME280;3206;42.666;23.600;2022-07-21T03:20:35;95467.00;;;14.76;100.00
6347;BME280;3206;42.666;23.600;2022-07-21T03:23:03;95447.34;;;14.53;100.00
6347;BME280;3206;42.666;23.600;2022-07-21T03:25:30;95460.84;;;14.75;100.00
6347;BME280;3206;42.666;23.600;2022-07-21T03:27:57;95461.72;;;14.60;100.00
6347;BME280;3206;42.666;23.600;2022-07-21T03:30:25;95463.19;;;14.58;100.00
6347;BME280;3206;42.666;23.600;2022-07-21T03:32:54;95460.94;;;14.41;100.00
6347;BME280;3206;42.666;23.600;2022-07-21T03:35:21;95469.28;;;14.36;100.00
6347;BME280;3206;42.666;23.600;2022-07-21T03:37:50;95470.13;;;14.40;100.00
6347;BME280;3206;42.666;23.600;2022-07-21T03:40:19;95470.50;;;14.57;100.00
6347;BME280;3206;42.666;23.600;2022-07-21T03:42:48;95464.50;;;14.45;100.00
6347;BME280;3206;42.666;23.600;2022-07-21T03:45:15;95468.00;;;14.11;100.00
6347;BME280;3206;42.666;23.600;2022-07-21T03:47:42;95463.16;;;14.01;100.00
6347;BME280;3206;42.666;23.600;2022-07-21T03:50:09;95469.56;;;14.12;100.00
6347;BME280;3206;42.666;23.600;2022-07-21T03:52:37;95474.38;;;14.22;100.00
6347;BME280;3206;42.666;23.600;2022-07-21T03:55:06;95476.56;;;14.16;100.00
6347;BME280;3206;42.666;23.600;2022-07-21T03:57:41;95446.44;;;14.07;100.00
6347;BME280;3206;42.666;23.600;2022-07-21T04:00:10;95482.00;;;14.20;100.00
6347;BME280;3206;42.666;23.600;2022-07-21T04:02:37;95479.81;;;14.25;100.00
6347;BME280;3206;42.666;23.600;2022-07-21T04:05:05;95477.34;;;14.36;100.00
6347;BME280;3206;42.666;23.600;2022-07-21T04:07:31;95482.44;;;14.60;100.00
6347;BME280;3206;42.666;23.600;2022-07-21T04:09:58;95485.34;;;14.70;100.00
6347;BME280;3206;42.666;23.600;2022-07-21T04:12:27;95477.88;;;14.83;100.00
6347;BME280;3206;42.666;23.600;2022-07-21T04:14:55;95480.22;;;15.06;100.00
6347;BME280;3206;42.666;23.600;2022-07-21T04:17:22;95443.53;;;14.95;100.00
6347;BME280;3206;42.666;23.600;2022-07-21T04:19:49;95488.75;;;15.31;100.00
6347;BME280;3206;42.666;23.600;2022-07-21T04:22:16;95487.31;;;15.37;100.00
6347;BME280;3206;42.666;23.600;2022-07-21T04:24:42;95493.34;;;15.53;100.00
6347;BME280;3206;42.666;23.600;2022-07-21T04:27:09;95478.44;;;15.59;100.00
6347;BME280;3206;42.666;23.600;2022-07-21T04:29:37;95493.00;;;15.80;100.00
6347;BME280;3206;42.666;23.600;2022-07-21T04:32:04;95490.00;;;15.85;100.00
6347;BME280;3206;42.666;23.600;2022-07-21T04:34:31;95479.34;;;15.92;100.00
6347;BME280;3206;42.666;23.600;2022-07-21T04:36:58;95489.13;;;16.04;100.00
6347;BME280;3206;42.666;23.600;2022-07-21T04:39:25;95493.97;;;16.21;100.00
6347;BME280;3206;42.666;23.600;2022-07-21T04:44:26;95493.28;;;16.27;100.00
6347;BME280;3206;42.666;23.600;2022-07-21T04:46:52;95491.41;;;16.31;100.00
6347;BME280;3206;42.666;23.600;2022-07-21T04:49:19;95492.72;;;16.41;100.00
6347;BME280;3206;42.666;23.600;2022-07-21T04:51:46;95493.25;;;16.53;100.00
6347;BME280;3206;42.666;23.600;2022-07-21T04:54:12;95493.34;;;16.60;100.00
6347;BME280;3206;42.666;23.600;2022-07-21T04:56:40;95496.91;;;16.71;100.00
6347;BME280;3206;42.666;23.600;2022-07-21T04:59:07;95491.69;;;16.85;100.00
6347;BME280;3206;42.666;23.600;2022-07-21T05:01:36;95487.88;;;16.90;100.00
6347;BME280;3206;42.666;23.600;2022-07-21T05:04:03;95500.94;;;16.84;100.00
6347;BME280;3206;42.666;23.600;2022-07-21T05:06:30;95491.50;;;17.04;100.00
6347;BME280;3206;42.666;23.600;2022-07-21T05:08:57;95500.44;;;17.11;100.00
6347;BME280;3206;42.666;23.600;2022-07-21T05:11:24;95506.06;;;17.32;100.00
6347;BME280;3206;42.666;23.600;2022-07-21T05:13:51;95509.25;;;17.38;100.00
6347;BME280;3206;42.666;23.600;2022-07-21T05:16:18;95498.53;;;17.48;100.00
6347;BME280;3206;42.666;23.600;2022-07-21T05:18:46;95500.19;;;17.67;100.00
6347;BME280;3206;42.666;23.600;2022-07-21T05:21:13;95488.41;;;17.92;100.00
6347;BME280;3206;42.666;23.600;2022-07-21T05:23:39;95498.56;;;18.06;100.00
6347;BME280;3206;42.666;23.600;2022-07-21T05:26:06;95498.25;;;18.21;100.00
6347;BME280;3206;42.666;23.600;2022-07-21T05:28:33;95492.97;;;18.42;100.00
6347;BME280;3206;42.666;23.600;2022-07-21T05:31:02;95495.78;;;18.60;100.00
6347;BME280;3206;42.666;23.600;2022-07-21T05:33:29;95495.47;;;18.79;100.00
6347;BME280;3206;42.666;23.600;2022-07-21T05:35:57;95499.75;;;18.90;100.00
6347;BME280;3206;42.666;23.600;2022-07-21T05:38:23;95492.06;;;19.06;100.00
6347;BME280;3206;42.666;23.600;2022-07-21T05:40:50;95475.50;;;19.35;100.00
6347;BME280;3206;42.666;23.600;2022-07-21T05:43:17;95501.84;;;20.08;100.00
6347;BME280;3206;42.666;23.600;2022-07-21T05:45:44;95474.28;;;20.27;100.00
6347;BME280;3206;42.666;23.600;2022-07-21T05:48:10;95494.34;;;20.68;100.00
6347;BME280;3206;42.666;23.600;2022-07-21T05:50:37;95502.66;;;21.15;100.00
6347;BME280;3206;42.666;23.600;2022-07-21T05:53:05;95490.22;;;21.76;100.00
6347;BME280;3206;42.666;23.600;2022-07-21T05:55:32;95491.19;;;21.99;100.00
6347;BME280;3206;42.666;23.600;2022-07-21T05:57:58;95490.09;;;22.34;100.00
6347;BME280;3206;42.666;23.600;2022-07-21T06:00:25;95495.00;;;22.49;100.00
6347;BME280;3206;42.666;23.600;2022-07-21T06:02:52;95490.34;;;22.50;100.00
6347;BME280;3206;42.666;23.600;2022-07-21T06:05:19;95488.56;;;22.70;100.00
6347;BME280;3206;42.666;23.600;2022-07-21T06:07:45;95461.84;;;22.58;100.00
6347;BME280;3206;42.666;23.600;2022-07-21T06:10:15;95495.03;;;22.79;100.00
6347;BME280;3206;42.666;23.600;2022-07-21T06:12:43;95490.81;;;22.75;100.00
6347;BME280;3206;42.666;23.600;2022-07-21T06:15:10;95491.75;;;22.61;100.00
6347;BME280;3206;42.666;23.600;2022-07-21T06:17:41;95491.78;;;22.58;100.00
6347;BME280;3206;42.666;23.600;2022-07-21T06:20:08;95473.63;;;22.48;100.00
6347;BME280;3206;42.666;23.600;2022-07-21T06:22:36;95487.53;;;22.57;100.00
6347;BME280;3206;42.666;23.600;2022-07-21T06:25:03;95486.34;;;22.58;100.00
6347;BME280;3206;42.666;23.600;2022-07-21T06:27:31;95480.31;;;22.73;100.00
6347;BME280;3206;42.666;23.600;2022-07-21T06:29:58;95481.06;;;22.77;100.00
6347;BME280;3206;42.666;23.600;2022-07-21T06:32:25;95482.19;;;22.80;100.00
6347;BME280;3206;42.666;23.600;2022-07-21T06:34:52;95482.97;;;22.80;99.67
6347;BME280;3206;42.666;23.600;2022-07-21T06:37:19;95473.59;;;22.85;99.63
6347;BME280;3206;42.666;23.600;2022-07-21T06:39:46;95475.44;;;22.91;100.00
6347;BME280;3206;42.666;23.600;2022-07-21T06:42:13;95437.88;;;22.76;100.00
6347;BME280;3206;42.666;23.600;2022-07-21T06:44:41;95473.47;;;22.92;100.00
6347;BME280;3206;42.666;23.600;2022-07-21T06:47:08;95467.81;;;23.09;98.91
6347;BME280;3206;42.666;23.600;2022-07-21T06:49:35;95458.66;;;22.93;99.11
6347;BME280;3206;42.666;23.600;2022-07-21T06:52:01;95471.13;;;23.23;97.26
6347;BME280;3206;42.666;23.600;2022-07-21T06:54:28;95469.91;;;23.28;87.04
6347;BME280;3206;42.666;23.600;2022-07-21T06:56:55;95469.03;;;23.34;89.83
6347;BME280;3206;42.666;23.600;2022-07-21T06:59:21;95475.38;;;23.24;87.18
6347;BME280;3206;42.666;23.600;2022-07-21T07:01:49;95465.16;;;23.32;88.64
6347;BME280;3206;42.666;23.600;2022-07-21T07:04:16;95466.06;;;23.22;89.55
6347;BME280;3206;42.666;23.600;2022-07-21T07:06:43;95467.66;;;23.23;92.11
6347;BME280;3206;42.666;23.600;2022-07-21T07:09:10;95455.84;;;23.29;88.24
6347;BME280;3206;42.666;23.600;2022-07-21T07:11:36;95462.03;;;23.33;95.01
6347;BME280;3206;42.666;23.600;2022-07-21T07:14:04;95457.81;;;23.29;100.00
6347;BME280;3206;42.666;23.600;2022-07-21T07:16:31;95460.56;;;23.52;100.00
6347;BME280;3206;42.666;23.600;2022-07-21T07:18:59;95451.63;;;23.74;96.04
6347;BME280;3206;42.666;23.600;2022-07-21T07:21:26;95452.13;;;23.92;94.00
6347;BME280;3206;42.666;23.600;2022-07-21T07:23:52;95458.91;;;24.07;91.98
6347;BME280;3206;42.666;23.600;2022-07-21T07:26:19;95446.72;;;24.12;87.22
6347;BME280;3206;42.666;23.600;2022-07-21T07:28:46;95453.47;;;24.27;87.66
6347;BME280;3206;42.666;23.600;2022-07-21T07:31:12;95456.16;;;24.50;89.29
6347;BME280;3206;42.666;23.600;2022-07-21T07:33:39;95443.84;;;24.61;88.24
6347;BME280;3206;42.666;23.600;2022-07-21T07:36:08;95448.06;;;24.85;91.12
6347;BME280;3206;42.666;23.600;2022-07-21T07:38:37;95441.22;;;24.93;87.38
6347;BME280;3206;42.666;23.600;2022-07-21T07:41:05;95444.19;;;25.02;85.27
6347;BME280;3206;42.666;23.600;2022-07-21T07:43:32;95442.97;;;25.22;84.12
6347;BME280;3206;42.666;23.600;2022-07-21T07:45:58;95436.66;;;25.25;87.38
6347;BME280;3206;42.666;23.600;2022-07-21T07:48:26;95434.88;;;25.35;82.35
6347;BME280;3206;42.666;23.600;2022-07-21T07:50:53;95436.56;;;25.29;80.09
6347;BME280;3206;42.666;23.600;2022-07-21T07:53:21;95430.50;;;25.21;81.15
6347;BME280;3206;42.666;23.600;2022-07-21T07:55:48;95432.59;;;25.14;82.27
6347;BME280;3206;42.666;23.600;2022-07-21T07:58:14;95426.13;;;25.24;82.74
6347;BME280;3206;42.666;23.600;2022-07-21T08:00:41;95421.88;;;25.55;83.21
6347;BME280;3206;42.666;23.600;2022-07-21T08:03:08;95415.47;;;25.61;83.50
6347;BME280;3206;42.666;23.600;2022-07-21T08:05:35;95420.38;;;25.86;83.04
6347;BME280;3206;42.666;23.600;2022-07-21T08:08:02;95407.31;;;26.06;79.73
6347;BME280;3206;42.666;23.600;2022-07-21T08:10:30;95384.25;;;25.91;77.54
6347;BME280;3206;42.666;23.600;2022-07-21T08:12:57;95399.88;;;26.06;76.59
6347;BME280;3206;42.666;23.600;2022-07-21T08:15:24;95408.75;;;26.26;79.40
6347;BME280;3206;42.666;23.600;2022-07-21T08:17:51;95405.72;;;26.37;75.38
6347;BME280;3206;42.666;23.600;2022-07-21T08:20:17;95404.56;;;26.50;74.39
6347;BME280;3206;42.666;23.600;2022-07-21T08:22:44;95403.00;;;26.78;70.99
6347;BME280;3206;42.666;23.600;2022-07-21T08:25:11;95395.59;;;27.03;71.24
6347;BME280;3206;42.666;23.600;2022-07-21T08:27:39;95390.69;;;27.11;69.32
6347;BME280;3206;42.666;23.600;2022-07-21T08:30:09;95397.25;;;27.38;67.62
6347;BME280;3206;42.666;23.600;2022-07-21T08:32:35;95391.88;;;27.59;68.19
6347;BME280;3206;42.666;23.600;2022-07-21T08:35:03;95386.78;;;27.70;65.62
6347;BME280;3206;42.666;23.600;2022-07-21T08:37:33;95393.94;;;27.68;65.00
6347;BME280;3206;42.666;23.600;2022-07-21T08:40:00;95390.56;;;27.76;66.76
6347;BME280;3206;42.666;23.600;2022-07-21T08:42:27;95389.53;;;27.83;65.67
6347;BME280;3206;42.666;23.600;2022-07-21T08:44:55;95384.81;;;27.83;64.69
6347;BME280;3206;42.666;23.600;2022-07-21T08:47:22;95390.72;;;27.94;63.40
6347;BME280;3206;42.666;23.600;2022-07-21T08:49:49;95377.25;;;28.09;63.05
6347;BME280;3206;42.666;23.600;2022-07-21T08:52:16;95387.13;;;28.19;62.99
6347;BME280;3206;42.666;23.600;2022-07-21T08:54:43;95382.00;;;28.42;63.18
6347;BME280;3206;42.666;23.600;2022-07-21T08:57:10;95363.50;;;28.64;63.90
6347;BME280;3206;42.666;23.600;2022-07-21T08:59:37;95375.66;;;29.06;60.90
6347;BME280;3206;42.666;23.600;2022-07-21T09:02:05;95372.16;;;29.45;59.48
6347;BME280;3206;42.666;23.600;2022-07-21T09:04:33;95361.63;;;30.46;57.24
6347;BME280;3206;42.666;23.600;2022-07-21T09:07:03;95357.75;;;31.62;53.29
6347;BME280;3206;42.666;23.600;2022-07-21T09:09:33;95349.69;;;32.43;49.84
6347;BME280;3206;42.666;23.600;2022-07-21T09:12:02;95350.69;;;33.27;48.00
6347;BME280;3206;42.666;23.600;2022-07-21T09:14:31;95345.13;;;32.40;48.61
6347;BME280;3206;42.666;23.600;2022-07-21T09:16:59;95343.72;;;33.03;48.90
6347;BME280;3206;42.666;23.600;2022-07-21T09:19:38;95332.19;;;34.07;46.30
6347;BME280;3206;42.666;23.600;2022-07-21T09:22:12;95337.78;;;33.39;45.94
6347;BME280;3206;42.666;23.600;2022-07-21T09:24:40;95333.84;;;32.44;46.87
6347;BME280;3206;42.666;23.600;2022-07-21T09:27:11;95330.59;;;31.60;48.49
6347;BME280;3206;42.666;23.600;2022-07-21T09:29:44;95331.38;;;30.87;50.80
6347;BME280;3206;42.666;23.600;2022-07-21T09:32:16;95326.66;;;31.52;48.65
6347;BME280;3206;42.666;23.600;2022-07-21T09:34:47;95333.44;;;33.52;46.59
6347;BME280;3206;42.666;23.600;2022-07-21T09:37:14;95322.56;;;34.03;43.66
6347;BME280;3206;42.666;23.600;2022-07-21T09:39:42;95310.03;;;35.04;40.49
6347;BME280;3206;42.666;23.600;2022-07-21T09:42:15;95318.16;;;36.38;39.86
6347;BME280;3206;42.666;23.600;2022-07-21T09:44:47;95314.75;;;37.20;37.16
6347;BME280;3206;42.666;23.600;2022-07-21T09:47:17;95311.47;;;38.28;36.23
6347;BME280;3206;42.666;23.600;2022-07-21T09:49:45;95303.81;;;38.85;33.58
6347;BME280;3206;42.666;23.600;2022-07-21T09:52:24;95297.41;;;39.55;32.37
6347;BME280;3206;42.666;23.600;2022-07-21T09:54:52;95298.63;;;38.60;33.11
6347;BME280;3206;42.666;23.600;2022-07-21T09:57:20;95302.69;;;38.59;32.39
6347;BME280;3206;42.666;23.600;2022-07-21T09:59:49;95289.13;;;37.60;34.24
6347;BME280;3206;42.666;23.600;2022-07-21T10:02:19;95300.88;;;39.07;33.06
6347;BME280;3206;42.666;23.600;2022-07-21T10:04:56;95297.56;;;39.03;32.26
6347;BME280;3206;42.666;23.600;2022-07-21T10:07:25;95302.03;;;37.63;32.54
6347;BME280;3206;42.666;23.600;2022-07-21T10:09:53;95293.44;;;37.39;32.83
6347;BME280;3206;42.666;23.600;2022-07-21T10:12:20;95291.91;;;38.39;32.37
6347;BME280;3206;42.666;23.600;2022-07-21T10:14:47;95280.19;;;39.45;31.26
6347;BME280;3206;42.666;23.600;2022-07-21T10:17:15;95272.91;;;40.08;30.79
6347;BME280;3206;42.666;23.600;2022-07-21T10:19:52;95280.59;;;41.13;29.14
6347;BME280;3206;42.666;23.600;2022-07-21T10:22:26;95281.69;;;41.23;28.63
6347;BME280;3206;42.666;23.600;2022-07-21T10:24:55;95272.63;;;40.67;29.46
6347;BME280;3206;42.666;23.600;2022-07-21T10:27:23;95277.81;;;40.63;29.45
6347;BME280;3206;42.666;23.600;2022-07-21T10:29:58;95268.38;;;40.05;29.77
6347;BME280;3206;42.666;23.600;2022-07-21T10:32:29;95260.63;;;40.54;29.55
6347;BME280;3206;42.666;23.600;2022-07-21T10:34:59;95262.16;;;39.17;30.85
6347;BME280;3206;42.666;23.600;2022-07-21T10:37:49;95257.97;;;38.99;30.45
6347;BME280;3206;42.666;23.600;2022-07-21T10:40:37;95245.66;;;40.27;29.73
6347;BME280;3206;42.666;23.600;2022-07-21T10:43:40;95246.47;;;40.96;29.04
6347;BME280;3206;42.666;23.600;2022-07-21T10:46:34;95241.53;;;39.92;29.96
6347;BME280;3206;42.666;23.600;2022-07-21T10:49:06;95243.16;;;38.75;31.41
6347;BME280;3206;42.666;23.600;2022-07-21T10:51:37;95239.78;;;38.87;30.74
6347;BME280;3206;42.666;23.600;2022-07-21T10:54:25;95233.44;;;39.16;29.97
6347;BME280;3206;42.666;23.600;2022-07-21T10:57:26;95234.22;;;39.89;29.03
6347;BME280;3206;42.666;23.600;2022-07-21T11:00:19;95231.13;;;38.56;29.52
6347;BME280;3206;42.666;23.600;2022-07-21T11:02:49;95223.00;;;39.89;29.50
6347;BME280;3206;42.666;23.600;2022-07-21T11:05:16;95219.47;;;39.88;28.92
6347;BME280;3206;42.666;23.600;2022-07-21T11:08:14;95221.25;;;39.67;28.98
6347;BME280;3206;42.666;23.600;2022-07-21T11:10:42;95209.19;;;40.33;28.76
6347;BME280;3206;42.666;23.600;2022-07-21T11:13:12;95215.72;;;38.79;30.01
6347;BME280;3206;42.666;23.600;2022-07-21T11:15:47;95212.69;;;40.39;28.77
6347;BME280;3206;42.666;23.600;2022-07-21T11:18:19;95218.84;;;40.69;27.51
6347;BME280;3206;42.666;23.600;2022-07-21T11:21:16;95210.97;;;39.93;28.36
6347;BME280;3206;42.666;23.600;2022-07-21T11:23:48;95160.31;;;38.53;28.89
6347;BME280;3206;42.666;23.600;2022-07-21T11:26:17;95202.09;;;38.35;29.57
6347;BME280;3206;42.666;23.600;2022-07-21T11:28:45;95205.22;;;39.86;28.69
6347;BME280;3206;42.666;23.600;2022-07-21T11:31:18;95211.09;;;39.64;28.96
6347;BME280;3206;42.666;23.600;2022-07-21T11:33:48;95205.88;;;39.02;29.11
6347;BME280;3206;42.666;23.600;2022-07-21T11:36:27;95201.59;;;40.65;27.86
6347;BME280;3206;42.666;23.600;2022-07-21T11:39:04;95199.25;;;41.00;27.28
6347;BME280;3206;42.666;23.600;2022-07-21T11:41:32;95207.03;;;41.20;26.64
6347;BME280;3206;42.666;23.600;2022-07-21T11:43:59;95211.78;;;41.25;26.92
6347;BME280;3206;42.666;23.600;2022-07-21T11:46:27;95195.94;;;40.83;27.14
6347;BME280;3206;42.666;23.600;2022-07-21T11:49:02;95190.25;;;41.33;26.78
6347;BME280;3206;42.666;23.600;2022-07-21T11:51:30;95191.13;;;42.39;26.23
6347;BME280;3206;42.666;23.600;2022-07-21T11:53:57;95155.25;;;42.12;26.09
6347;BME280;3206;42.666;23.600;2022-07-21T11:56:25;95194.75;;;41.23;27.06
6347;BME280;3206;42.666;23.600;2022-07-21T11:59:08;95195.44;;;41.94;26.64
6347;BME280;3206;42.666;23.600;2022-07-21T12:01:50;95173.75;;;43.51;25.16
6347;BME280;3206;42.666;23.600;2022-07-21T12:04:39;95188.66;;;41.77;26.86
6347;BME280;3206;42.666;23.600;2022-07-21T12:07:14;95181.84;;;39.65;27.63
6347;BME280;3206;42.666;23.600;2022-07-21T12:09:44;95182.34;;;40.24;27.49
6347;BME280;3206;42.666;23.600;2022-07-21T12:12:13;95177.53;;;39.64;28.41
6347;BME280;3206;42.666;23.600;2022-07-21T12:14:52;95188.34;;;40.97;26.90
6347;BME280;3206;42.666;23.600;2022-07-21T12:17:33;95169.50;;;42.14;26.71
6347;BME280;3206;42.666;23.600;2022-07-21T12:20:00;95172.19;;;42.20;25.39
6347;BME280;3206;42.666;23.600;2022-07-21T12:22:39;95169.25;;;40.32;26.56
6347;BME280;3206;42.666;23.600;2022-07-21T12:25:09;95158.06;;;39.96;27.56
6347;BME280;3206;42.666;23.600;2022-07-21T12:27:41;95151.56;;;40.87;27.22
6347;BME280;3206;42.666;23.600;2022-07-21T12:33:01;95160.38;;;39.31;27.85
6347;BME280;3206;42.666;23.600;2022-07-21T12:35:29;95162.00;;;40.05;27.30
6347;BME280;3206;42.666;23.600;2022-07-21T12:38:04;95156.69;;;39.60;27.76
6347;BME280;3206;42.666;23.600;2022-07-21T12:40:33;95153.63;;;40.55;27.15
6347;BME280;3206;42.666;23.600;2022-07-21T12:43:10;95154.16;;;40.04;27.72
6347;BME280;3206;42.666;23.600;2022-07-21T12:45:54;95144.13;;;40.45;26.85
6347;BME280;3206;42.666;23.600;2022-07-21T12:48:23;95147.63;;;41.35;26.27
6347;BME280;3206;42.666;23.600;2022-07-21T12:51:01;95145.38;;;41.46;25.19
6347;BME280;3206;42.666;23.600;2022-07-21T12:53:29;95145.22;;;43.47;24.70
6347;BME280;3206;42.666;23.600;2022-07-21T12:55:56;95127.28;;;43.29;24.52
6347;BME280;3206;42.666;23.600;2022-07-21T12:58:25;95154.44;;;41.78;25.24
6347;BME280;3206;42.666;23.600;2022-07-21T13:00:52;95140.09;;;41.69;25.99
6347;BME280;3206;42.666;23.600;2022-07-21T13:03:19;95140.28;;;40.61;26.99
6347;BME280;3206;42.666;23.600;2022-07-21T13:05:46;95144.13;;;40.45;26.87
6347;BME280;3206;42.666;23.600;2022-07-21T13:08:12;95135.31;;;40.99;25.83
6347;BME280;3206;42.666;23.600;2022-07-21T13:10:39;95141.97;;;40.51;26.81
6347;BME280;3206;42.666;23.600;2022-07-21T13:13:06;95142.75;;;40.96;26.18
6347;BME280;3206;42.666;23.600;2022-07-21T13:15:34;95134.03;;;40.68;25.89
6347;BME280;3206;42.666;23.600;2022-07-21T13:18:01;95106.06;;;41.59;26.07
6347;BME280;3206;42.666;23.600;2022-07-21T13:20:28;95138.38;;;41.27;25.54